Seattle, Washington
Traffic Map
Current Weather Conditions
Seattle, Washington
Overcast
Overcast
19°
Feels Like: 19°
Wind Chill: 19° Ceiling: 7500
Heat Index: 19° Visibility: 10mi
Dew Point: Wind: 0mph
Humidity: 52% Direction: ° ()
Pressure: 30.09in Gusts: 0mph
Raw Report DataKBFI 302153Z 00000KT 10SM OVC075 19/09 A3009 RMK AO2 SLP188 T01890089
Traffic Incident Summary
Active as of:
Severity:
Category:
InformationThere was an issue retrieving the traffic information for this location. Please try a different location or try again shortly.
Advertisements
Track Severe Weather on mobile